createdAt,value
2022-11-07T00:00:50.398Z,100.00
2022-11-07T00:06:27.344Z,100.00
2022-11-07T00:12:05.348Z,100.00
2022-11-07T00:17:42.359Z,100.00
2022-11-07T00:23:19.330Z,100.00
2022-11-07T00:28:58.344Z,100.00
2022-11-07T00:34:35.338Z,100.00
2022-11-07T00:40:12.340Z,100.00
2022-11-07T00:45:50.352Z,100.00
2022-11-07T00:51:29.305Z,100.00
2022-11-07T00:57:06.321Z,100.00
2022-11-07T01:02:44.407Z,100.00
2022-11-07T01:08:21.318Z,100.00
2022-11-07T01:13:58.328Z,100.00
2022-11-07T01:19:36.385Z,100.00
2022-11-07T01:25:13.456Z,100.00
2022-11-07T01:30:53.307Z,100.00
2022-11-07T01:36:33.318Z,100.00
2022-11-07T01:42:10.315Z,100.00
2022-11-07T01:47:53.311Z,100.00
2022-11-07T01:53:31.321Z,100.00
2022-11-07T01:59:09.335Z,100.00
2022-11-07T02:04:46.323Z,100.00
2022-11-07T02:10:26.333Z,100.00
2022-11-07T02:16:03.299Z,100.00
2022-11-07T02:21:42.315Z,100.00
2022-11-07T02:27:24.322Z,100.00
2022-11-07T02:33:02.320Z,100.00
2022-11-07T02:38:43.320Z,100.00
2022-11-07T02:44:25.317Z,100.00
2022-11-07T02:50:02.317Z,100.00
2022-11-07T02:55:39.320Z,100.00
2022-11-07T03:08:43.323Z,100.00
2022-11-07T03:14:20.384Z,100.00
2022-11-07T03:19:57.347Z,100.00
2022-11-07T03:25:35.309Z,100.00
2022-11-07T03:31:14.326Z,100.00
2022-11-07T03:36:51.302Z,100.00
2022-11-07T03:42:29.314Z,100.00
2022-11-07T03:48:06.310Z,100.00
2022-11-07T03:53:43.287Z,100.00
2022-11-07T03:59:21.281Z,100.00
2022-11-07T04:04:58.295Z,100.00
2022-11-07T04:10:35.296Z,100.00
2022-11-07T04:16:30.287Z,100.00
2022-11-07T04:22:07.292Z,100.00
2022-11-07T04:27:50.301Z,100.00
2022-11-07T04:33:28.305Z,100.00
2022-11-07T04:39:05.287Z,100.00
2022-11-07T04:44:42.295Z,100.00
2022-11-07T04:50:23.282Z,100.00
2022-11-07T04:56:00.286Z,100.00
2022-11-07T05:01:37.332Z,100.00
2022-11-07T05:07:15.293Z,100.00
2022-11-07T05:12:52.299Z,100.00
2022-11-07T05:18:31.303Z,100.00
2022-11-07T05:24:09.303Z,100.00
2022-11-07T05:29:46.293Z,100.00
2022-11-07T05:35:24.284Z,100.00
2022-11-07T05:41:02.411Z,100.00
2022-11-07T05:46:39.291Z,100.00
2022-11-07T05:52:16.294Z,100.00
2022-11-07T05:57:54.313Z,100.00
2022-11-07T06:03:31.294Z,100.00
2022-11-07T06:09:08.317Z,100.00
2022-11-07T06:14:46.305Z,100.00
2022-11-07T06:20:24.291Z,100.00
2022-11-07T06:26:01.305Z,100.00
2022-11-07T06:31:39.290Z,100.00
2022-11-07T06:37:16.312Z,100.00
2022-11-07T06:42:53.285Z,100.00
2022-11-07T06:48:31.261Z,100.00
2022-11-07T06:54:08.301Z,100.00
2022-11-07T06:59:50.538Z,100.00
2022-11-07T07:05:29.267Z,99.49
2022-11-07T07:10:59.276Z,97.74
2022-11-07T07:16:36.329Z,96.52
2022-11-07T07:22:14.302Z,94.93
2022-11-07T07:27:51.265Z,93.89
2022-11-07T07:33:28.258Z,91.99
2022-11-07T07:39:07.300Z,92.18
2022-11-07T07:44:47.042Z,91.33
2022-11-07T07:50:25.293Z,90.70
2022-11-07T07:56:03.324Z,90.32
2022-11-07T08:01:40.419Z,89.40
2022-11-07T08:07:21.751Z,88.98
2022-11-07T08:12:56.200Z,88.75
2022-11-07T08:18:39.230Z,87.93
2022-11-07T08:24:16.358Z,87.01
2022-11-07T08:29:56.288Z,87.20
2022-11-07T08:35:35.805Z,86.56
2022-11-07T08:41:19.667Z,86.02
2022-11-07T08:47:04.400Z,87.00
2022-11-07T08:52:44.252Z,86.93
2022-11-07T08:58:25.952Z,85.73
2022-11-07T09:04:07.318Z,84.84
2022-11-07T09:09:47.445Z,84.67
2022-11-07T09:15:25.259Z,83.13
2022-11-07T09:21:07.079Z,82.81
2022-11-07T09:26:46.244Z,82.02
2022-11-07T09:32:38.659Z,82.10
2022-11-07T09:38:21.250Z,82.55
2022-11-07T09:44:12.244Z,82.25
2022-11-07T09:49:53.266Z,81.39
2022-11-07T09:55:38.278Z,81.58
2022-11-07T10:01:19.345Z,82.26
2022-11-07T10:07:00.255Z,81.59
2022-11-07T10:12:56.258Z,79.69
2022-11-07T10:18:40.263Z,80.35
2022-11-07T10:24:36.249Z,79.31
2022-11-07T10:30:16.236Z,79.10
2022-11-07T10:35:58.250Z,78.03
2022-11-07T10:41:38.247Z,76.28
2022-11-07T10:47:17.265Z,72.35
2022-11-07T10:52:56.263Z,70.08
2022-11-07T10:58:28.578Z,70.43
2022-11-07T11:04:06.275Z,69.15
2022-11-07T11:09:45.213Z,69.62
2022-11-07T11:15:32.766Z,69.45
2022-11-07T11:21:14.249Z,70.20
2022-11-07T11:26:57.948Z,66.86
2022-11-07T11:32:40.244Z,66.77
2022-11-07T11:38:28.567Z,66.78
2022-11-07T11:44:12.233Z,66.53
2022-11-07T11:49:54.245Z,67.54
2022-11-07T11:55:35.445Z,67.64
2022-11-07T12:01:21.293Z,66.39
2022-11-07T12:07:00.270Z,65.96
2022-11-07T12:12:49.223Z,67.16
2022-11-07T12:18:34.279Z,66.93
2022-11-07T12:24:34.220Z,65.76
2022-11-07T12:30:25.235Z,64.92
2022-11-07T12:36:07.283Z,64.04
2022-11-07T12:41:54.260Z,66.05
2022-11-07T12:47:56.262Z,64.85
2022-11-07T12:53:45.247Z,66.79
2022-11-07T12:59:37.242Z,69.16
2022-11-07T13:05:29.227Z,69.17
2022-11-07T13:11:13.247Z,68.23
2022-11-07T13:16:51.230Z,70.45
2022-11-07T13:22:45.221Z,71.72
2022-11-07T13:28:53.243Z,71.84
2022-11-07T13:34:41.225Z,71.23
2022-11-07T13:40:31.296Z,70.22
2022-11-07T13:46:11.217Z,71.38
2022-11-07T13:51:55.277Z,70.93
2022-11-07T13:57:38.200Z,69.45
2022-11-07T14:03:16.561Z,66.41
2022-11-07T14:08:56.252Z,66.19
2022-11-07T14:14:37.207Z,63.61
2022-11-07T14:20:22.220Z,64.52
2022-11-07T14:26:09.265Z,65.07
2022-11-07T14:31:50.203Z,68.04
2022-11-07T14:37:35.396Z,70.94
2022-11-07T14:43:12.274Z,72.19
2022-11-07T14:48:51.274Z,72.54
2022-11-07T14:54:33.192Z,73.72
2022-11-07T15:00:10.236Z,75.51
2022-11-07T15:05:59.453Z,77.03
2022-11-07T15:11:41.223Z,78.64
2022-11-07T15:17:18.223Z,79.59
2022-11-07T15:22:56.216Z,80.65
2022-11-07T15:28:37.198Z,82.55
2022-11-07T15:34:17.932Z,83.33
2022-11-07T15:40:03.224Z,84.20
2022-11-07T15:45:40.210Z,85.92
2022-11-07T15:51:17.236Z,85.57
2022-11-07T15:56:58.597Z,86.81
2022-11-07T16:02:35.367Z,88.31
2022-11-07T16:08:14.532Z,88.71
2022-11-07T16:13:59.345Z,89.75
2022-11-07T16:19:44.188Z,90.87
2022-11-07T16:25:22.753Z,91.90
2022-11-07T16:31:00.193Z,91.28
2022-11-07T16:36:39.197Z,93.22
2022-11-07T16:42:16.204Z,93.63
2022-11-07T16:47:54.191Z,94.31
2022-11-07T16:53:31.170Z,94.92
2022-11-07T16:59:08.205Z,94.62
2022-11-07T17:04:46.189Z,95.84
2022-11-07T17:10:23.188Z,96.40
2022-11-07T17:16:01.211Z,96.36
2022-11-07T17:21:43.212Z,97.71
2022-11-07T17:27:29.218Z,97.74
2022-11-07T17:33:06.211Z,98.04
2022-11-07T17:38:44.203Z,98.93
2022-11-07T17:44:21.177Z,99.00
2022-11-07T17:49:58.133Z,99.25
2022-11-07T17:55:37.389Z,100.00
2022-11-07T18:01:14.374Z,99.76
2022-11-07T18:06:52.172Z,99.62
2022-11-07T18:12:30.210Z,99.79
2022-11-07T18:18:00.159Z,99.92
2022-11-07T18:23:37.172Z,99.72
2022-11-07T18:29:18.183Z,100.00
2022-11-07T18:34:55.177Z,100.00
2022-11-07T18:40:32.170Z,100.00
2022-11-07T18:46:11.186Z,100.00
2022-11-07T18:51:49.152Z,99.72
2022-11-07T18:57:26.155Z,100.00
2022-11-07T19:03:05.177Z,100.00
2022-11-07T19:08:42.156Z,100.00
2022-11-07T19:14:19.187Z,100.00
2022-11-07T19:19:57.175Z,100.00
2022-11-07T19:25:34.312Z,100.00
2022-11-07T19:31:11.145Z,100.00
2022-11-07T19:36:51.232Z,100.00
2022-11-07T19:42:34.445Z,100.00
2022-11-07T19:48:15.479Z,100.00
2022-11-07T19:53:53.164Z,100.00
2022-11-07T19:59:31.601Z,100.00
2022-11-07T20:05:30.152Z,100.00
2022-11-07T20:11:08.213Z,100.00
2022-11-07T20:16:46.148Z,99.72
2022-11-07T20:22:23.136Z,100.00
2022-11-07T20:28:01.183Z,100.00
2022-11-07T20:33:38.131Z,99.90
2022-11-07T20:39:17.156Z,99.84
2022-11-07T20:44:55.165Z,99.76
2022-11-07T20:50:32.144Z,100.00
2022-11-07T20:56:09.136Z,99.57
2022-11-07T21:01:49.159Z,99.88
2022-11-07T21:07:26.121Z,100.00
2022-11-07T21:13:03.143Z,100.00
2022-11-07T21:18:41.154Z,99.70
2022-11-07T21:24:18.138Z,100.00
2022-11-07T21:29:55.138Z,100.00
2022-11-07T21:35:33.684Z,100.00
2022-11-07T21:41:12.303Z,100.00
2022-11-07T21:46:49.134Z,100.00
2022-11-07T21:52:27.140Z,100.00
2022-11-07T21:58:05.117Z,100.00
2022-11-07T22:04:05.116Z,100.00
2022-11-07T22:09:40.132Z,100.00
2022-11-07T22:15:17.140Z,100.00
2022-11-07T22:20:54.133Z,100.00
2022-11-07T22:26:41.129Z,100.00
2022-11-07T22:32:19.108Z,100.00
2022-11-07T22:37:56.125Z,100.00
2022-11-07T22:43:36.116Z,100.00
2022-11-07T22:49:14.120Z,100.00
2022-11-07T22:54:51.116Z,100.00
2022-11-07T23:00:31.137Z,100.00
2022-11-07T23:06:08.098Z,100.00
2022-11-07T23:11:48.301Z,100.00
2022-11-07T23:17:27.109Z,100.00
2022-11-07T23:23:04.097Z,100.00
2022-11-07T23:28:41.101Z,100.00
2022-11-07T23:34:19.121Z,100.00
2022-11-07T23:39:56.119Z,100.00
2022-11-07T23:45:50.144Z,100.00
2022-11-07T23:51:28.088Z,100.00
2022-11-07T23:57:05.095Z,100.00
